createdAt,value
2023-01-25T00:00:31.008Z,30.93
2023-01-25T00:02:58.361Z,30.97
2023-01-25T00:05:25.467Z,31.53
2023-01-25T00:07:52.438Z,30.80
2023-01-25T00:10:20.517Z,28.80
2023-01-25T00:12:47.745Z,32.67
2023-01-25T00:15:14.973Z,31.50
2023-01-25T00:17:42.308Z,32.10
2023-01-25T00:20:10.144Z,28.70
2023-01-25T00:22:37.109Z,31.80
2023-01-25T00:25:04.494Z,31.50
2023-01-25T00:27:31.550Z,29.47
2023-01-25T00:29:58.600Z,30.60
2023-01-25T00:32:36.923Z,29.70
2023-01-25T00:35:04.098Z,28.53
2023-01-25T00:37:37.821Z,29.10
2023-01-25T00:40:06.188Z,26.57
2023-01-25T00:42:33.492Z,28.03
2023-01-25T00:45:00.442Z,28.97
2023-01-25T00:47:27.689Z,26.70
2023-01-25T00:49:54.787Z,28.60
2023-01-25T00:52:23.544Z,30.70
2023-01-25T00:54:50.440Z,27.33
2023-01-25T00:57:17.333Z,30.03
2023-01-25T00:59:44.770Z,29.67
2023-01-25T01:02:12.967Z,26.00
2023-01-25T01:04:39.952Z,27.90
2023-01-25T01:07:07.376Z,27.93
2023-01-25T01:09:34.274Z,27.50
2023-01-25T01:12:01.550Z,27.17
2023-01-25T01:14:28.603Z,29.23
2023-01-25T01:16:57.239Z,32.10
2023-01-25T01:19:25.315Z,30.27
2023-01-25T01:21:52.143Z,31.70
2023-01-25T01:24:20.443Z,33.27
2023-01-25T01:26:47.327Z,28.50
2023-01-25T01:32:10.305Z,31.20
2023-01-25T01:34:37.321Z,31.20
2023-01-25T01:37:04.211Z,32.33
2023-01-25T01:39:31.604Z,31.40
2023-01-25T01:41:58.831Z,31.70
2023-01-25T01:44:50.111Z,30.80
2023-01-25T01:47:25.950Z,30.20
2023-01-25T01:49:58.096Z,30.43
2023-01-25T01:52:31.272Z,31.27
2023-01-25T01:55:22.711Z,32.70
2023-01-25T01:57:56.075Z,32.43
2023-01-25T02:00:32.552Z,33.50
2023-01-25T02:03:00.104Z,32.83
2023-01-25T02:05:51.664Z,32.97
2023-01-25T02:08:19.899Z,31.20
2023-01-25T02:10:48.838Z,33.53
2023-01-25T02:13:17.200Z,31.20
2023-01-25T02:15:47.584Z,31.63
2023-01-25T02:18:15.451Z,31.30
2023-01-25T02:20:43.313Z,31.00
2023-01-25T02:23:29.531Z,32.70
2023-01-25T02:25:58.848Z,33.37
2023-01-25T02:28:48.689Z,31.40
2023-01-25T02:31:15.753Z,30.03
2023-01-25T02:33:43.580Z,33.67
2023-01-25T02:36:10.545Z,32.60
2023-01-25T02:38:46.884Z,32.00
2023-01-25T02:41:34.748Z,31.40
2023-01-25T02:44:05.512Z,31.43
2023-01-25T02:46:38.197Z,35.13
2023-01-25T02:49:06.884Z,33.57
2023-01-25T02:51:36.527Z,34.10
2023-01-25T02:54:05.398Z,35.40
2023-01-25T02:56:32.412Z,32.83
2023-01-25T02:58:59.464Z,32.30
2023-01-25T03:01:26.737Z,34.00
2023-01-25T03:03:53.566Z,32.63
2023-01-25T03:06:20.523Z,32.50
2023-01-25T03:08:47.400Z,33.27
2023-01-25T03:11:14.113Z,32.57
2023-01-25T03:13:40.862Z,35.67
2023-01-25T03:16:10.796Z,32.90
2023-01-25T03:18:38.333Z,32.37
2023-01-25T03:21:09.900Z,32.97
2023-01-25T03:23:37.849Z,31.87
2023-01-25T03:26:25.576Z,33.63
2023-01-25T03:28:52.355Z,34.90
2023-01-25T03:31:19.404Z,36.27
2023-01-25T03:33:46.536Z,34.33
2023-01-25T03:36:13.673Z,33.03
2023-01-25T03:38:40.495Z,35.77
2023-01-25T03:41:08.469Z,32.20
2023-01-25T03:43:35.551Z,32.57
2023-01-25T03:46:02.699Z,32.17
2023-01-25T03:48:30.778Z,32.80
2023-01-25T03:50:59.135Z,30.90
2023-01-25T03:53:30.850Z,30.07
2023-01-25T03:56:02.096Z,31.67
2023-01-25T03:58:30.309Z,34.00
2023-01-25T04:00:59.064Z,30.53
2023-01-25T04:03:27.092Z,32.60
2023-01-25T04:05:55.611Z,32.97
2023-01-25T04:08:23.639Z,35.27
2023-01-25T04:10:55.363Z,31.80
2023-01-25T04:13:23.646Z,33.67
2023-01-25T04:15:50.472Z,34.30
2023-01-25T04:18:18.120Z,34.90
2023-01-25T04:20:45.181Z,34.17
2023-01-25T04:23:13.108Z,31.70
2023-01-25T04:25:40.027Z,30.23
2023-01-25T04:28:06.847Z,30.37
2023-01-25T04:30:33.636Z,30.07
2023-01-25T04:33:06.818Z,26.03
2023-01-25T04:35:33.846Z,27.37
2023-01-25T04:38:00.704Z,28.50
2023-01-25T04:40:27.808Z,25.50
2023-01-25T04:42:55.047Z,27.00
2023-01-25T04:45:22.471Z,25.47
2023-01-25T04:47:50.176Z,27.83
2023-01-25T04:50:17.037Z,26.97
2023-01-25T04:52:43.810Z,27.03
2023-01-25T04:55:10.878Z,25.97
2023-01-25T04:57:38.200Z,28.23
2023-01-25T05:00:05.691Z,27.33
2023-01-25T05:02:32.546Z,27.10
2023-01-25T05:04:59.401Z,27.20
2023-01-25T05:07:26.368Z,25.70
2023-01-25T05:09:53.287Z,26.57
2023-01-25T05:12:20.113Z,26.13
2023-01-25T05:14:46.842Z,26.33
2023-01-25T05:17:13.718Z,27.67
2023-01-25T05:19:40.928Z,27.37
2023-01-25T05:22:11.650Z,26.47
2023-01-25T05:24:41.647Z,27.40
2023-01-25T05:27:09.843Z,23.73
2023-01-25T05:29:41.696Z,24.13
2023-01-25T05:32:13.185Z,25.50
2023-01-25T05:34:41.733Z,26.97
2023-01-25T05:37:10.516Z,26.60
2023-01-25T05:39:37.338Z,24.53
2023-01-25T05:42:08.593Z,29.20
2023-01-25T05:44:35.369Z,26.83
2023-01-25T05:47:02.192Z,27.70
2023-01-25T05:49:28.942Z,28.27
2023-01-25T05:51:55.688Z,27.10
2023-01-25T05:54:22.483Z,27.47
2023-01-25T05:56:50.247Z,25.10
2023-01-25T05:59:17.509Z,26.10
2023-01-25T06:01:44.826Z,26.67
2023-01-25T06:04:16.263Z,25.70
2023-01-25T06:06:43.219Z,25.70
2023-01-25T06:09:13.814Z,27.63
2023-01-25T06:11:44.894Z,25.77
2023-01-25T06:14:12.059Z,27.43
2023-01-25T06:16:39.175Z,26.37
2023-01-25T06:19:07.121Z,26.97
2023-01-25T06:21:37.692Z,28.30
2023-01-25T06:24:05.320Z,26.97
2023-01-25T06:26:32.385Z,28.80
2023-01-25T06:28:59.283Z,27.50
2023-01-25T06:31:26.147Z,29.90
2023-01-25T06:33:53.211Z,28.90
2023-01-25T06:36:21.459Z,27.63
2023-01-25T06:38:50.725Z,28.33
2023-01-25T06:41:18.874Z,27.67
2023-01-25T06:43:48.250Z,27.87
2023-01-25T06:46:15.609Z,27.33
2023-01-25T06:48:45.523Z,29.37
2023-01-25T06:51:13.968Z,28.07
2023-01-25T06:53:43.426Z,28.83
2023-01-25T06:56:17.593Z,27.07
2023-01-25T06:58:45.235Z,29.40
2023-01-25T07:01:20.169Z,28.90
2023-01-25T07:03:52.037Z,28.70
2023-01-25T07:06:19.427Z,27.03
2023-01-25T07:08:46.667Z,29.20
2023-01-25T07:11:14.153Z,27.73
2023-01-25T07:13:42.605Z,27.57
2023-01-25T07:16:13.417Z,29.70
2023-01-25T07:18:42.097Z,29.07
2023-01-25T07:21:17.919Z,28.53
2023-01-25T07:23:45.223Z,26.33
2023-01-25T07:26:23.159Z,31.97
2023-01-25T07:28:51.007Z,29.40
2023-01-25T07:31:18.987Z,30.37
2023-01-25T07:33:50.694Z,30.10
2023-01-25T07:36:17.901Z,29.47
2023-01-25T07:38:45.132Z,29.40
2023-01-25T07:41:12.962Z,28.73
2023-01-25T07:43:39.983Z,29.83
2023-01-25T07:46:11.159Z,28.90
2023-01-25T07:48:39.215Z,29.97
2023-01-25T07:51:23.250Z,29.70
2023-01-25T07:53:54.043Z,30.10
2023-01-25T07:56:23.370Z,29.67
2023-01-25T07:58:51.695Z,30.27
2023-01-25T08:01:20.249Z,30.10
2023-01-25T08:03:48.780Z,30.57
2023-01-25T08:06:15.594Z,29.07
2023-01-25T08:08:48.950Z,29.90
2023-01-25T08:11:18.798Z,31.37
2023-01-25T08:13:50.064Z,31.67
2023-01-25T08:16:18.757Z,31.77
2023-01-25T08:18:50.355Z,31.77
2023-01-25T08:21:17.434Z,31.47
2023-01-25T08:23:44.845Z,30.40
2023-01-25T08:26:14.637Z,32.73
2023-01-25T08:28:41.315Z,34.60
2023-01-25T08:31:11.499Z,31.40
2023-01-25T08:33:39.305Z,31.93
2023-01-25T08:36:07.933Z,32.97
2023-01-25T08:38:34.871Z,30.30
2023-01-25T08:41:16.182Z,30.60
2023-01-25T08:43:44.726Z,32.00
2023-01-25T08:46:12.272Z,32.50
2023-01-25T08:48:39.030Z,28.50
2023-01-25T08:51:08.755Z,30.93
2023-01-25T08:53:35.706Z,28.93
2023-01-25T08:56:07.277Z,30.27
2023-01-25T08:58:35.259Z,28.43
2023-01-25T09:01:06.971Z,31.37
2023-01-25T09:03:38.920Z,31.20
2023-01-25T09:06:06.596Z,29.50
2023-01-25T09:08:33.861Z,30.77
2023-01-25T09:11:02.397Z,31.53
2023-01-25T09:13:29.434Z,30.20
2023-01-25T09:16:04.573Z,30.60
2023-01-25T09:18:31.817Z,30.23
2023-01-25T09:20:58.848Z,29.57
2023-01-25T09:23:26.775Z,30.60
2023-01-25T09:25:58.275Z,31.93
2023-01-25T09:28:25.922Z,28.83
2023-01-25T09:31:18.870Z,34.00
2023-01-25T09:33:44.721Z,31.07
2023-01-25T09:36:11.497Z,33.53
2023-01-25T09:38:38.895Z,31.33
2023-01-25T09:41:15.398Z,32.67
2023-01-25T09:44:20.021Z,31.47
2023-01-25T09:47:02.966Z,28.70
2023-01-25T09:49:43.231Z,30.63
2023-01-25T09:52:18.833Z,27.83
2023-01-25T09:54:47.663Z,29.67
2023-01-25T09:57:36.916Z,28.93
2023-01-25T10:00:19.869Z,30.47
2023-01-25T10:03:17.297Z,30.40
2023-01-25T10:05:50.596Z,29.73
2023-01-25T10:08:25.958Z,31.93
2023-01-25T10:11:00.386Z,29.23
2023-01-25T10:13:31.846Z,32.23
2023-01-25T10:16:06.470Z,29.20
2023-01-25T10:18:51.884Z,30.40
2023-01-25T10:21:30.263Z,28.47
2023-01-25T10:24:24.574Z,29.20
2023-01-25T10:27:02.786Z,30.30
2023-01-25T10:29:35.085Z,28.50
2023-01-25T10:32:26.533Z,33.10
2023-01-25T10:35:08.746Z,29.67
2023-01-25T10:37:37.134Z,33.57
2023-01-25T10:40:23.968Z,30.47
2023-01-25T10:43:02.863Z,36.17
2023-01-25T10:45:30.228Z,32.17
2023-01-25T10:48:03.542Z,33.53
2023-01-25T10:50:42.676Z,31.37
2023-01-25T10:53:40.191Z,32.67
2023-01-25T10:56:22.766Z,30.73
2023-01-25T10:58:51.667Z,34.70
2023-01-25T11:01:29.471Z,34.07
2023-01-25T11:03:56.902Z,36.17
2023-01-25T11:06:36.444Z,35.37
2023-01-25T11:09:29.653Z,36.70
2023-01-25T11:12:17.931Z,33.57
2023-01-25T11:14:46.051Z,32.60
2023-01-25T11:17:31.942Z,35.60
2023-01-25T11:20:18.534Z,34.53
2023-01-25T11:22:56.215Z,34.20
2023-01-25T11:25:29.834Z,38.30
2023-01-25T11:28:12.293Z,35.43
2023-01-25T11:30:39.310Z,37.77
2023-01-25T11:33:13.745Z,33.63
2023-01-25T11:36:13.195Z,35.37
2023-01-25T11:39:06.296Z,37.07
2023-01-25T11:42:05.720Z,36.77
2023-01-25T11:44:41.488Z,33.90
2023-01-25T11:47:14.048Z,36.50
2023-01-25T11:49:56.059Z,36.10
2023-01-25T11:53:11.645Z,37.77
2023-01-25T11:56:08.982Z,36.50
2023-01-25T11:59:00.811Z,35.53
2023-01-25T12:01:40.495Z,36.67
2023-01-25T12:04:33.925Z,37.40
2023-01-25T12:07:05.571Z,37.30
2023-01-25T12:09:41.737Z,36.40
2023-01-25T12:12:20.659Z,38.20
2023-01-25T12:15:01.362Z,36.60
2023-01-25T12:17:57.797Z,34.07
2023-01-25T12:20:39.695Z,38.40
2023-01-25T12:23:48.134Z,37.80
2023-01-25T12:26:27.750Z,38.17
2023-01-25T12:29:20.324Z,41.57
2023-01-25T12:31:52.531Z,36.50
2023-01-25T12:34:35.877Z,37.00
2023-01-25T12:37:14.435Z,34.27
2023-01-25T12:39:52.521Z,37.53
2023-01-25T12:42:24.781Z,36.40
2023-01-25T12:45:30.241Z,34.03
2023-01-25T12:48:31.941Z,33.50
2023-01-25T12:51:00.421Z,33.00
2023-01-25T12:53:33.605Z,36.10
2023-01-25T12:56:02.455Z,36.93
2023-01-25T12:58:47.028Z,33.00
2023-01-25T13:01:22.842Z,30.60
2023-01-25T13:04:11.399Z,36.87
2023-01-25T13:07:06.091Z,39.83
2023-01-25T13:09:59.550Z,34.60
2023-01-25T13:12:26.839Z,36.77
2023-01-25T13:14:53.888Z,36.20
2023-01-25T13:17:35.491Z,35.60
2023-01-25T13:20:16.603Z,37.30
2023-01-25T13:22:43.508Z,35.83
2023-01-25T13:25:16.536Z,40.30
2023-01-25T13:27:44.092Z,39.80
2023-01-25T13:30:31.223Z,36.60
2023-01-25T13:33:02.350Z,38.50
2023-01-25T13:35:34.819Z,35.67
2023-01-25T13:38:32.663Z,35.90
2023-01-25T13:41:18.097Z,40.03
2023-01-25T13:43:48.370Z,34.80
2023-01-25T13:46:18.069Z,35.67
2023-01-25T13:49:07.582Z,39.00
2023-01-25T13:51:39.385Z,40.47
2023-01-25T13:54:06.367Z,40.33
2023-01-25T13:56:35.804Z,38.27
2023-01-25T13:59:02.755Z,35.73
2023-01-25T14:01:31.696Z,36.90
2023-01-25T14:04:02.246Z,37.17
2023-01-25T14:06:39.875Z,37.83
2023-01-25T14:09:16.873Z,36.43
2023-01-25T14:11:51.560Z,37.90
2023-01-25T14:14:25.340Z,35.17
2023-01-25T14:17:19.233Z,35.97
2023-01-25T14:20:19.524Z,38.70
2023-01-25T14:22:50.828Z,35.03
2023-01-25T14:25:21.043Z,36.37
2023-01-25T14:27:59.967Z,37.90
2023-01-25T14:30:30.725Z,40.17
2023-01-25T14:33:22.246Z,35.87
2023-01-25T14:35:57.286Z,37.77
2023-01-25T14:38:30.527Z,37.50
2023-01-25T14:41:03.459Z,36.60
2023-01-25T14:43:31.268Z,37.30
2023-01-25T14:45:58.247Z,34.03
2023-01-25T14:48:42.667Z,36.57
2023-01-25T14:51:27.047Z,35.40
2023-01-25T14:54:02.347Z,32.57
2023-01-25T14:56:45.820Z,35.40
2023-01-25T14:59:33.769Z,33.37
2023-01-25T15:02:39.467Z,32.73
2023-01-25T15:05:16.588Z,32.60
2023-01-25T15:07:53.045Z,32.40
2023-01-25T15:10:31.413Z,33.93
2023-01-25T15:13:18.127Z,35.03
2023-01-25T15:15:58.936Z,36.50
2023-01-25T15:18:52.224Z,33.30
2023-01-25T15:21:41.048Z,30.73
2023-01-25T15:24:12.289Z,32.53
2023-01-25T15:26:39.411Z,36.17
2023-01-25T15:29:20.904Z,33.10
2023-01-25T15:31:50.128Z,32.00
2023-01-25T15:34:29.800Z,33.60
2023-01-25T15:36:57.242Z,34.27
2023-01-25T15:39:24.315Z,32.17
2023-01-25T15:41:51.749Z,34.47
2023-01-25T15:44:20.300Z,34.80
2023-01-25T15:46:50.549Z,35.40
2023-01-25T15:49:26.658Z,33.33
2023-01-25T15:51:54.695Z,31.10
2023-01-25T15:54:22.511Z,32.40
2023-01-25T15:56:56.122Z,31.33
2023-01-25T15:59:23.379Z,31.90
2023-01-25T16:01:50.429Z,32.20
2023-01-25T16:04:17.437Z,32.93
2023-01-25T16:06:52.652Z,32.57
2023-01-25T16:09:30.237Z,33.90
2023-01-25T16:11:58.978Z,33.00
2023-01-25T16:14:29.250Z,31.10
2023-01-25T16:16:59.864Z,32.70
2023-01-25T16:19:26.990Z,31.87
2023-01-25T16:21:54.242Z,35.23
2023-01-25T16:24:21.269Z,32.80
2023-01-25T16:26:56.797Z,32.80
2023-01-25T16:29:24.099Z,32.77
2023-01-25T16:31:53.820Z,33.50
2023-01-25T16:34:22.290Z,32.50
2023-01-25T16:36:50.749Z,34.27
2023-01-25T16:39:21.879Z,31.60
2023-01-25T16:41:50.315Z,33.67
2023-01-25T16:44:18.131Z,35.90
2023-01-25T16:46:45.433Z,34.20
2023-01-25T16:49:20.650Z,34.30
2023-01-25T16:51:49.751Z,32.30
2023-01-25T16:54:16.713Z,30.27
2023-01-25T16:56:44.284Z,30.30
2023-01-25T16:59:11.687Z,32.67
2023-01-25T17:01:41.703Z,31.60
2023-01-25T17:04:10.054Z,28.90
2023-01-25T17:06:46.141Z,31.33
2023-01-25T17:09:23.408Z,32.37
2023-01-25T17:11:51.062Z,33.00
2023-01-25T17:14:21.870Z,34.50
2023-01-25T17:16:51.455Z,35.33
2023-01-25T17:19:19.744Z,34.60
2023-01-25T17:21:46.986Z,33.20
2023-01-25T17:24:17.513Z,37.30
2023-01-25T17:26:45.262Z,34.53
2023-01-25T17:29:15.292Z,33.27
2023-01-25T17:31:44.940Z,34.60
2023-01-25T17:34:16.108Z,30.03
2023-01-25T17:36:45.952Z,34.87
2023-01-25T17:39:17.567Z,33.80
2023-01-25T17:41:46.599Z,31.20
2023-01-25T17:44:14.924Z,33.70
2023-01-25T17:46:41.856Z,33.90
2023-01-25T17:49:12.134Z,34.63
2023-01-25T17:51:39.045Z,34.87
2023-01-25T17:54:06.501Z,33.43
2023-01-25T17:56:33.377Z,34.17
2023-01-25T17:59:04.596Z,32.80
2023-01-25T18:01:32.216Z,33.90
2023-01-25T18:04:00.622Z,36.47
2023-01-25T18:06:30.772Z,36.30
2023-01-25T18:09:00.728Z,32.37
2023-01-25T18:11:31.024Z,33.60
2023-01-25T18:14:04.714Z,33.83
2023-01-25T18:16:32.457Z,34.90
2023-01-25T18:19:00.721Z,34.83
2023-01-25T18:21:31.618Z,35.57
2023-01-25T18:24:20.727Z,35.00
2023-01-25T18:26:47.765Z,33.33
2023-01-25T18:29:14.658Z,35.77
2023-01-25T18:31:42.383Z,35.00
2023-01-25T18:34:09.458Z,36.87
2023-01-25T18:36:36.317Z,32.07
2023-01-25T18:39:03.720Z,33.77
2023-01-25T18:41:31.208Z,31.20
2023-01-25T18:43:58.112Z,33.50
2023-01-25T18:46:25.127Z,32.23
2023-01-25T18:48:52.150Z,32.90
2023-01-25T18:51:19.083Z,32.93
2023-01-25T18:53:49.421Z,30.97
2023-01-25T18:56:17.851Z,33.77
2023-01-25T18:58:45.518Z,33.40
2023-01-25T19:01:17.022Z,33.30
2023-01-25T19:03:45.597Z,36.13
2023-01-25T19:06:13.195Z,36.83
2023-01-25T19:08:49.950Z,36.50
2023-01-25T19:11:19.948Z,34.40
2023-01-25T19:13:51.062Z,34.13
2023-01-25T19:16:20.666Z,36.73
2023-01-25T19:18:50.197Z,37.30
2023-01-25T19:21:22.527Z,35.50
2023-01-25T19:23:50.626Z,33.20
2023-01-25T19:26:19.971Z,34.10
2023-01-25T19:28:47.904Z,35.90
2023-01-25T19:31:21.097Z,35.67
2023-01-25T19:33:48.939Z,39.17
2023-01-25T19:36:19.266Z,35.37
2023-01-25T19:38:47.134Z,37.00
2023-01-25T19:41:19.895Z,36.07
2023-01-25T19:43:47.235Z,38.67
2023-01-25T19:46:17.084Z,34.37
2023-01-25T19:48:44.882Z,34.50
2023-01-25T19:51:22.616Z,35.70
2023-01-25T19:53:53.822Z,34.47
2023-01-25T19:56:20.874Z,36.50
2023-01-25T19:58:48.842Z,34.50
2023-01-25T20:01:18.067Z,36.30
2023-01-25T20:03:45.727Z,37.67
2023-01-25T20:06:14.310Z,40.40
2023-01-25T20:08:44.263Z,39.67
2023-01-25T20:11:15.694Z,36.17
2023-01-25T20:13:43.260Z,35.77
2023-01-25T20:16:12.172Z,40.07
2023-01-25T20:18:39.723Z,33.93
2023-01-25T20:21:15.321Z,33.57
2023-01-25T20:23:44.318Z,37.73
2023-01-25T20:26:14.305Z,36.53
2023-01-25T20:28:43.148Z,34.37
2023-01-25T20:31:24.100Z,34.23
2023-01-25T20:33:53.484Z,34.70
2023-01-25T20:36:21.454Z,33.53
2023-01-25T20:38:48.549Z,33.90
2023-01-25T20:41:17.848Z,34.70
2023-01-25T20:43:47.756Z,33.80
2023-01-25T20:46:16.333Z,34.60
2023-01-25T20:48:43.961Z,34.70
2023-01-25T20:51:13.986Z,34.00
2023-01-25T20:53:42.360Z,36.30
2023-01-25T20:56:11.224Z,34.27
2023-01-25T20:58:38.518Z,33.53
2023-01-25T21:01:13.981Z,34.33
2023-01-25T21:03:41.986Z,32.70
2023-01-25T21:06:09.139Z,35.37
2023-01-25T21:08:36.505Z,32.10
2023-01-25T21:11:03.924Z,31.33
2023-01-25T21:13:30.890Z,33.40
2023-01-25T21:16:06.224Z,31.03
2023-01-25T21:18:39.308Z,29.30
2023-01-25T21:21:10.668Z,32.17
2023-01-25T21:23:44.791Z,29.70
2023-01-25T21:26:15.583Z,29.40
2023-01-25T21:28:42.622Z,34.07
2023-01-25T21:31:17.335Z,34.03
2023-01-25T21:33:45.116Z,32.30
2023-01-25T21:36:16.707Z,32.60
2023-01-25T21:38:46.084Z,33.40
2023-01-25T21:41:16.824Z,33.80
2023-01-25T21:44:02.372Z,32.83
2023-01-25T21:46:29.450Z,35.27
2023-01-25T21:49:16.894Z,31.37
2023-01-25T21:51:49.578Z,32.80
2023-01-25T21:54:18.963Z,31.60
2023-01-25T21:56:47.496Z,31.77
2023-01-25T21:59:15.615Z,34.10
2023-01-25T22:01:45.520Z,31.53
2023-01-25T22:04:13.888Z,30.00
2023-01-25T22:06:41.179Z,32.90
2023-01-25T22:09:08.807Z,33.37
2023-01-25T22:11:36.157Z,30.57
2023-01-25T22:14:03.436Z,30.40
2023-01-25T22:16:30.421Z,32.33
2023-01-25T22:18:59.411Z,28.50
2023-01-25T22:21:30.763Z,35.77
2023-01-25T22:24:03.762Z,29.63
2023-01-25T22:26:46.027Z,32.30
2023-01-25T22:29:14.059Z,32.93
2023-01-25T22:31:41.448Z,30.70
2023-01-25T22:34:08.680Z,31.97
2023-01-25T22:36:35.565Z,33.30
2023-01-25T22:39:02.409Z,33.63
2023-01-25T22:41:33.089Z,35.80
2023-01-25T22:43:59.940Z,31.47
2023-01-25T22:46:30.266Z,30.80
2023-01-25T22:48:58.746Z,33.37
2023-01-25T22:51:28.583Z,31.23
2023-01-25T22:53:57.386Z,33.43
2023-01-25T22:56:31.752Z,31.33
2023-01-25T22:59:00.375Z,31.40
2023-01-25T23:01:33.463Z,34.10
2023-01-25T23:04:01.962Z,30.90
2023-01-25T23:06:33.196Z,35.20
2023-01-25T23:09:03.268Z,30.93
2023-01-25T23:11:36.941Z,34.17
2023-01-25T23:14:29.379Z,33.67
2023-01-25T23:17:16.823Z,32.50
2023-01-25T23:19:43.746Z,30.93
2023-01-25T23:22:10.717Z,30.93
2023-01-25T23:24:38.015Z,34.37
2023-01-25T23:27:04.950Z,34.93
2023-01-25T23:29:32.077Z,33.90
2023-01-25T23:31:59.063Z,32.37
2023-01-25T23:34:26.085Z,37.77
2023-01-25T23:36:52.942Z,34.70
2023-01-25T23:39:20.380Z,36.90
2023-01-25T23:41:48.102Z,35.73
2023-01-25T23:44:15.366Z,34.57
2023-01-25T23:46:42.285Z,32.87
2023-01-25T23:49:09.492Z,35.10
2023-01-25T23:51:36.417Z,35.20
2023-01-25T23:54:03.322Z,32.90
2023-01-25T23:56:30.228Z,34.87
2023-01-25T23:58:57.883Z,31.10
